Skip Navigation Links
NOAA logo - Click to go to the NOAA homepage
NOAA's National Weather Service
Alaska Aviation Weather Unit
  NWS logo - Click to go to the NWS homepage
Left Navbar Graphic     00 AKDT = 08 GMT

   
NOAA is celebrating 200 years of science, service, and stewardship. Visit the NOAA 200th celebration Web site to learn more.
USA.gov is the U.S. Government's official Web portal to all Federal, state and local government Web resources and services.
Facebook
NWS on Facebook

Important Change Regarding the AAWU Web Presence

 

Over the last several months, the AAWU has been working to navigate its webpages to a nationally supported server. Security, as well as other needs, have necessitated the change.  We have been given an extension for the site changeover while we diligently work at addressing feedback received. As of July 14, 2017, aawu.arh.noaa.gov will be discontinued. The new AAWU web address is weather.gov/aawu. It is now live and will run in-parallel with the old site until it is discontinued on July 14, 2017. Please continue to send any feedback or questions regarding the new webpages to nws.ar.aawu.webauthors@noaa.gov.  Thank you for your patience during this time of transition.
AAWU Home :: Display TAF Add Bookmark
TAF CYZF 102338Z 1100/1124 18012KT P6SM FEW240
     FM110400 17008KT P6SM SKC
     FM111500 18012G22KT P6SM SCT240 RMK
      NXT FCST BY 110600Z=

METAR CYZF 240200Z 10006KT 15SM BKN044 08/03 A3002 RMK SC7 SLP181= METAR CYZF 240300Z 09008KT 15SM BKN045 07/03 A3003 RMK SC6 SLP181= METAR CYZF 240400Z 10007KT 15SM BKN045 06/03 A3002 RMK SC6 SLP177= METAR CYZF 240500Z 10008KT 15SM FEW045 06/03 A3001 RMK SC2 SLP174= METAR CYZF 240600Z 10007KT 15SM FEW045 05/03 A3000 RMK SC1 SLP171= METAR CYZF 240700Z 09007KT 15SM FEW045 05/03 A2999 RMK SC2 SLP168= METAR CYZF 240800Z 10008KT 15SM SKC 05/03 A2998 RMK SLP165=
 Alaska TAF Map

NOAA's National Weather Service
Alaska Aviation Weather Unit
6930 Sand Lake Road
Anchorage, AK 99502-1845
Disclaimer
Credits
Glossary
Privacy Policy
About Us
Career Opportunities
Contact AAWU Internet Services Site last modified: April, 17th 2012